Terminal Aerodrome Forecast
Issued by NWS

Home | Current Version | Previous Version | Text Only | Print | Product List | Glossary On
Versions: 1 2 3 4 5 6 7 8 9 10 11 12 13 14 15 16 17 18 19 20 21 22
343
FTUS45 KTFX 281150
TAFGTF
TAF
KGTF 281150Z 2812/2912 VRB05KT P6SM SCT120
     FM281800 03007KT P6SM SCT080 SCT120
     FM282100 04007KT P6SM VCTS SCT080CB BKN150
     FM290300 10008KT P6SM FEW150=

USA.gov is the U.S. government's official web portal to all federal, state and local government web resources and services.